sensor_id;sensor_type;location;lat;lon;timestamp;P1;durP1;ratioP1;P2;durP2;ratioP2
45905;SDS011;31619;49.008;12.106;2023-04-24T00:00:56;4.95;;;4.10;;
45905;SDS011;31619;49.008;12.106;2023-04-24T00:03:23;6.20;;;4.53;;
45905;SDS011;31619;49.008;12.106;2023-04-24T00:05:49;8.05;;;4.57;;
45905;SDS011;31619;49.008;12.106;2023-04-24T00:08:16;4.85;;;4.38;;
45905;SDS011;31619;49.008;12.106;2023-04-24T00:10:42;3.95;;;3.75;;
45905;SDS011;31619;49.008;12.106;2023-04-24T00:13:07;3.47;;;3.28;;
45905;SDS011;31619;49.008;12.106;2023-04-24T00:15:33;4.40;;;3.83;;
45905;SDS011;31619;49.008;12.106;2023-04-24T00:17:59;4.55;;;4.03;;
45905;SDS011;31619;49.008;12.106;2023-04-24T00:20:26;4.70;;;3.97;;
45905;SDS011;31619;49.008;12.106;2023-04-24T00:22:54;5.18;;;4.50;;
45905;SDS011;31619;49.008;12.106;2023-04-24T00:25:20;6.07;;;5.30;;
45905;SDS011;31619;49.008;12.106;2023-04-24T00:27:46;4.65;;;4.35;;
45905;SDS011;31619;49.008;12.106;2023-04-24T00:30:12;5.43;;;5.03;;
45905;SDS011;31619;49.008;12.106;2023-04-24T00:32:37;4.75;;;4.43;;
45905;SDS011;31619;49.008;12.106;2023-04-24T00:35:03;5.78;;;5.10;;
45905;SDS011;31619;49.008;12.106;2023-04-24T00:37:30;6.75;;;4.85;;
45905;SDS011;31619;49.008;12.106;2023-04-24T00:39:56;5.25;;;4.80;;
45905;SDS011;31619;49.008;12.106;2023-04-24T00:42:22;5.30;;;4.90;;
45905;SDS011;31619;49.008;12.106;2023-04-24T00:44:48;6.03;;;5.53;;
45905;SDS011;31619;49.008;12.106;2023-04-24T00:47:13;6.03;;;5.57;;
45905;SDS011;31619;49.008;12.106;2023-04-24T00:49:39;6.68;;;6.07;;
45905;SDS011;31619;49.008;12.106;2023-04-24T00:52:05;6.65;;;6.03;;
45905;SDS011;31619;49.008;12.106;2023-04-24T00:54:33;6.35;;;5.80;;
45905;SDS011;31619;49.008;12.106;2023-04-24T00:57:03;5.65;;;5.25;;
45905;SDS011;31619;49.008;12.106;2023-04-24T00:59:29;5.45;;;5.03;;
45905;SDS011;31619;49.008;12.106;2023-04-24T01:01:56;5.75;;;5.25;;
45905;SDS011;31619;49.008;12.106;2023-04-24T01:04:23;6.25;;;5.75;;
45905;SDS011;31619;49.008;12.106;2023-04-24T01:06:49;6.10;;;5.60;;
45905;SDS011;31619;49.008;12.106;2023-04-24T01:09:16;6.35;;;5.85;;
45905;SDS011;31619;49.008;12.106;2023-04-24T01:11:42;7.00;;;6.28;;
45905;SDS011;31619;49.008;12.106;2023-04-24T01:14:08;7.05;;;5.88;;
45905;SDS011;31619;49.008;12.106;2023-04-24T01:16:34;7.15;;;6.57;;
45905;SDS011;31619;49.008;12.106;2023-04-24T01:19:00;6.15;;;5.65;;
45905;SDS011;31619;49.008;12.106;2023-04-24T01:21:27;7.50;;;6.90;;
45905;SDS011;31619;49.008;12.106;2023-04-24T01:23:59;7.45;;;6.85;;
45905;SDS011;31619;49.008;12.106;2023-04-24T01:26:25;6.90;;;6.20;;
45905;SDS011;31619;49.008;12.106;2023-04-24T01:28:51;7.00;;;6.50;;
45905;SDS011;31619;49.008;12.106;2023-04-24T01:31:17;7.88;;;7.22;;
45905;SDS011;31619;49.008;12.106;2023-04-24T01:33:43;7.40;;;6.80;;
45905;SDS011;31619;49.008;12.106;2023-04-24T01:36:12;6.85;;;6.35;;
45905;SDS011;31619;49.008;12.106;2023-04-24T01:38:39;8.00;;;7.10;;
45905;SDS011;31619;49.008;12.106;2023-04-24T01:41:05;8.50;;;7.70;;
45905;SDS011;31619;49.008;12.106;2023-04-24T01:43:30;10.98;;;10.00;;
45905;SDS011;31619;49.008;12.106;2023-04-24T01:45:57;10.15;;;9.30;;
45905;SDS011;31619;49.008;12.106;2023-04-24T01:48:22;8.82;;;8.02;;
45905;SDS011;31619;49.008;12.106;2023-04-24T01:50:48;8.07;;;7.43;;
45905;SDS011;31619;49.008;12.106;2023-04-24T01:53:14;8.40;;;7.55;;
45905;SDS011;31619;49.008;12.106;2023-04-24T01:55:40;9.48;;;8.10;;
45905;SDS011;31619;49.008;12.106;2023-04-24T01:58:06;8.65;;;7.32;;
45905;SDS011;31619;49.008;12.106;2023-04-24T02:00:32;8.63;;;7.82;;
45905;SDS011;31619;49.008;12.106;2023-04-24T02:02:58;10.13;;;9.32;;
45905;SDS011;31619;49.008;12.106;2023-04-24T02:05:23;11.63;;;10.57;;
45905;SDS011;31619;49.008;12.106;2023-04-24T02:07:49;13.02;;;11.82;;
45905;SDS011;31619;49.008;12.106;2023-04-24T02:10:15;11.27;;;10.27;;
45905;SDS011;31619;49.008;12.106;2023-04-24T02:12:40;11.55;;;10.45;;
45905;SDS011;31619;49.008;12.106;2023-04-24T02:15:06;12.38;;;11.07;;
45905;SDS011;31619;49.008;12.106;2023-04-24T02:17:32;28.02;;;11.43;;
45905;SDS011;31619;49.008;12.106;2023-04-24T02:19:58;12.35;;;11.15;;
45905;SDS011;31619;49.008;12.106;2023-04-24T02:22:23;11.63;;;10.63;;
45905;SDS011;31619;49.008;12.106;2023-04-24T02:24:49;10.82;;;9.88;;
45905;SDS011;31619;49.008;12.106;2023-04-24T02:27:15;10.85;;;9.85;;
45905;SDS011;31619;49.008;12.106;2023-04-24T02:29:40;11.32;;;10.32;;
45905;SDS011;31619;49.008;12.106;2023-04-24T02:32:06;12.25;;;9.98;;
45905;SDS011;31619;49.008;12.106;2023-04-24T02:34:31;11.00;;;10.00;;
45905;SDS011;31619;49.008;12.106;2023-04-24T02:36:57;10.40;;;9.32;;
45905;SDS011;31619;49.008;12.106;2023-04-24T02:39:23;9.70;;;8.90;;
45905;SDS011;31619;49.008;12.106;2023-04-24T02:41:48;10.60;;;9.63;;
45905;SDS011;31619;49.008;12.106;2023-04-24T02:44:14;9.10;;;8.30;;
45905;SDS011;31619;49.008;12.106;2023-04-24T02:46:39;9.48;;;8.57;;
45905;SDS011;31619;49.008;12.106;2023-04-24T02:49:06;9.57;;;8.60;;
45905;SDS011;31619;49.008;12.106;2023-04-24T02:51:32;9.30;;;8.40;;
45905;SDS011;31619;49.008;12.106;2023-04-24T02:53:58;10.07;;;8.70;;
45905;SDS011;31619;49.008;12.106;2023-04-24T02:56:23;10.30;;;7.70;;
45905;SDS011;31619;49.008;12.106;2023-04-24T02:58:49;8.18;;;7.47;;
45905;SDS011;31619;49.008;12.106;2023-04-24T03:01:14;10.20;;;9.30;;
45905;SDS011;31619;49.008;12.106;2023-04-24T03:03:40;9.02;;;8.32;;
45905;SDS011;31619;49.008;12.106;2023-04-24T03:06:06;8.48;;;7.78;;
45905;SDS011;31619;49.008;12.106;2023-04-24T03:08:33;7.57;;;6.93;;
45905;SDS011;31619;49.008;12.106;2023-04-24T03:10:59;7.88;;;7.05;;
45905;SDS011;31619;49.008;12.106;2023-04-24T03:13:25;7.90;;;7.20;;
45905;SDS011;31619;49.008;12.106;2023-04-24T03:15:50;8.50;;;7.80;;
45905;SDS011;31619;49.008;12.106;2023-04-24T03:18:16;8.88;;;8.07;;
45905;SDS011;31619;49.008;12.106;2023-04-24T03:20:42;7.65;;;6.97;;
45905;SDS011;31619;49.008;12.106;2023-04-24T03:23:10;8.32;;;7.53;;
45905;SDS011;31619;49.008;12.106;2023-04-24T03:25:35;8.88;;;8.02;;
45905;SDS011;31619;49.008;12.106;2023-04-24T03:28:01;7.97;;;7.18;;
45905;SDS011;31619;49.008;12.106;2023-04-24T03:30:27;9.13;;;8.43;;
45905;SDS011;31619;49.008;12.106;2023-04-24T03:32:52;9.43;;;8.55;;
45905;SDS011;31619;49.008;12.106;2023-04-24T03:35:18;14.35;;;9.40;;
45905;SDS011;31619;49.008;12.106;2023-04-24T03:37:44;12.68;;;11.00;;
45905;SDS011;31619;49.008;12.106;2023-04-24T03:40:09;11.57;;;10.48;;
45905;SDS011;31619;49.008;12.106;2023-04-24T03:42:35;11.02;;;9.93;;
45905;SDS011;31619;49.008;12.106;2023-04-24T03:45:01;13.75;;;11.65;;
45905;SDS011;31619;49.008;12.106;2023-04-24T03:47:26;11.35;;;10.18;;
45905;SDS011;31619;49.008;12.106;2023-04-24T03:49:52;11.30;;;10.20;;
45905;SDS011;31619;49.008;12.106;2023-04-24T03:52:19;12.48;;;11.27;;
45905;SDS011;31619;49.008;12.106;2023-04-24T03:54:44;11.55;;;10.45;;
45905;SDS011;31619;49.008;12.106;2023-04-24T03:57:10;14.63;;;12.57;;
45905;SDS011;31619;49.008;12.106;2023-04-24T03:59:36;16.00;;;14.27;;
45905;SDS011;31619;49.008;12.106;2023-04-24T04:02:01;20.13;;;16.13;;
45905;SDS011;31619;49.008;12.106;2023-04-24T04:04:27;20.38;;;15.93;;
45905;SDS011;31619;49.008;12.106;2023-04-24T04:06:53;17.45;;;14.55;;
45905;SDS011;31619;49.008;12.106;2023-04-24T04:09:18;20.38;;;17.50;;
45905;SDS011;31619;49.008;12.106;2023-04-24T04:11:44;19.23;;;15.93;;
45905;SDS011;31619;49.008;12.106;2023-04-24T04:14:10;20.75;;;16.77;;
45905;SDS011;31619;49.008;12.106;2023-04-24T04:16:35;21.63;;;17.25;;
45905;SDS011;31619;49.008;12.106;2023-04-24T04:19:01;20.20;;;16.75;;
45905;SDS011;31619;49.008;12.106;2023-04-24T04:21:28;19.02;;;16.23;;
45905;SDS011;31619;49.008;12.106;2023-04-24T04:23:54;15.70;;;14.10;;
45905;SDS011;31619;49.008;12.106;2023-04-24T04:26:19;16.25;;;14.57;;
45905;SDS011;31619;49.008;12.106;2023-04-24T04:28:46;23.92;;;18.10;;
45905;SDS011;31619;49.008;12.106;2023-04-24T04:31:12;24.45;;;18.60;;
45905;SDS011;31619;49.008;12.106;2023-04-24T04:33:38;21.38;;;17.00;;
45905;SDS011;31619;49.008;12.106;2023-04-24T04:36:04;17.38;;;15.50;;
45905;SDS011;31619;49.008;12.106;2023-04-24T04:38:30;19.45;;;16.95;;
45905;SDS011;31619;49.008;12.106;2023-04-24T04:40:56;18.05;;;15.73;;
45905;SDS011;31619;49.008;12.106;2023-04-24T04:43:24;14.85;;;13.35;;
45905;SDS011;31619;49.008;12.106;2023-04-24T04:45:50;16.70;;;13.50;;
45905;SDS011;31619;49.008;12.106;2023-04-24T04:48:17;12.80;;;11.70;;
45905;SDS011;31619;49.008;12.106;2023-04-24T04:50:43;15.55;;;13.95;;
45905;SDS011;31619;49.008;12.106;2023-04-24T04:53:09;17.83;;;15.98;;
45905;SDS011;31619;49.008;12.106;2023-04-24T04:55:36;15.57;;;13.98;;
45905;SDS011;31619;49.008;12.106;2023-04-24T04:58:02;15.73;;;12.65;;
45905;SDS011;31619;49.008;12.106;2023-04-24T05:00:28;12.68;;;11.57;;
45905;SDS011;31619;49.008;12.106;2023-04-24T05:02:58;13.45;;;11.95;;
45905;SDS011;31619;49.008;12.106;2023-04-24T05:05:24;13.02;;;11.55;;
45905;SDS011;31619;49.008;12.106;2023-04-24T05:07:50;17.15;;;12.80;;
45905;SDS011;31619;49.008;12.106;2023-04-24T05:10:15;12.38;;;11.18;;
45905;SDS011;31619;49.008;12.106;2023-04-24T05:12:41;11.55;;;10.40;;
45905;SDS011;31619;49.008;12.106;2023-04-24T05:15:07;9.77;;;8.88;;
45905;SDS011;31619;49.008;12.106;2023-04-24T05:17:32;9.43;;;8.45;;
45905;SDS011;31619;49.008;12.106;2023-04-24T05:19:58;8.32;;;7.53;;
45905;SDS011;31619;49.008;12.106;2023-04-24T05:22:24;7.75;;;6.97;;
45905;SDS011;31619;49.008;12.106;2023-04-24T05:24:49;7.10;;;6.45;;
45905;SDS011;31619;49.008;12.106;2023-04-24T05:27:15;7.60;;;6.93;;
45905;SDS011;31619;49.008;12.106;2023-04-24T05:29:40;7.22;;;6.63;;
45905;SDS011;31619;49.008;12.106;2023-04-24T05:32:06;7.35;;;6.70;;
45905;SDS011;31619;49.008;12.106;2023-04-24T05:34:32;8.65;;;6.55;;
45905;SDS011;31619;49.008;12.106;2023-04-24T05:36:57;7.38;;;6.78;;
45905;SDS011;31619;49.008;12.106;2023-04-24T05:39:23;8.57;;;7.70;;
45905;SDS011;31619;49.008;12.106;2023-04-24T05:41:50;6.53;;;5.70;;
45905;SDS011;31619;49.008;12.106;2023-04-24T05:44:15;5.32;;;4.93;;
45905;SDS011;31619;49.008;12.106;2023-04-24T05:46:41;5.32;;;4.00;;
45905;SDS011;31619;49.008;12.106;2023-04-24T05:49:06;3.90;;;3.60;;
45905;SDS011;31619;49.008;12.106;2023-04-24T05:51:32;4.43;;;3.90;;
45905;SDS011;31619;49.008;12.106;2023-04-24T05:53:58;3.70;;;3.50;;
45905;SDS011;31619;49.008;12.106;2023-04-24T05:56:23;3.90;;;3.45;;
45905;SDS011;31619;49.008;12.106;2023-04-24T05:58:49;4.10;;;3.40;;
45905;SDS011;31619;49.008;12.106;2023-04-24T06:01:15;4.07;;;3.78;;
45905;SDS011;31619;49.008;12.106;2023-04-24T06:03:40;3.72;;;3.40;;
45905;SDS011;31619;49.008;12.106;2023-04-24T06:06:06;4.30;;;4.00;;
45905;SDS011;31619;49.008;12.106;2023-04-24T06:08:33;3.88;;;3.58;;
45905;SDS011;31619;49.008;12.106;2023-04-24T06:10:59;4.50;;;4.20;;
45905;SDS011;31619;49.008;12.106;2023-04-24T06:13:25;4.68;;;4.28;;
45905;SDS011;31619;49.008;12.106;2023-04-24T06:15:50;4.10;;;3.78;;
45905;SDS011;31619;49.008;12.106;2023-04-24T06:18:17;4.10;;;3.80;;
45905;SDS011;31619;49.008;12.106;2023-04-24T06:20:43;4.70;;;3.70;;
45905;SDS011;31619;49.008;12.106;2023-04-24T06:23:09;3.60;;;3.40;;
45905;SDS011;31619;49.008;12.106;2023-04-24T06:25:35;3.47;;;3.15;;
45905;SDS011;31619;49.008;12.106;2023-04-24T06:28:01;4.15;;;3.85;;
45905;SDS011;31619;49.008;12.106;2023-04-24T06:30:27;3.83;;;3.63;;
45905;SDS011;31619;49.008;12.106;2023-04-24T06:32:53;3.78;;;3.58;;
45905;SDS011;31619;49.008;12.106;2023-04-24T06:35:18;3.88;;;3.58;;
45905;SDS011;31619;49.008;12.106;2023-04-24T06:37:44;3.10;;;2.90;;
45905;SDS011;31619;49.008;12.106;2023-04-24T06:40:11;3.97;;;3.35;;
45905;SDS011;31619;49.008;12.106;2023-04-24T06:42:36;4.40;;;3.95;;
45905;SDS011;31619;49.008;12.106;2023-04-24T06:45:02;4.18;;;3.78;;
45905;SDS011;31619;49.008;12.106;2023-04-24T06:47:28;4.72;;;3.65;;
45905;SDS011;31619;49.008;12.106;2023-04-24T06:49:54;3.20;;;3.00;;
45905;SDS011;31619;49.008;12.106;2023-04-24T06:52:20;3.65;;;3.40;;
45905;SDS011;31619;49.008;12.106;2023-04-24T06:54:46;3.90;;;3.55;;
45905;SDS011;31619;49.008;12.106;2023-04-24T06:57:12;3.22;;;3.13;;
45905;SDS011;31619;49.008;12.106;2023-04-24T06:59:37;4.28;;;3.28;;
45905;SDS011;31619;49.008;12.106;2023-04-24T07:02:03;3.35;;;3.15;;
45905;SDS011;31619;49.008;12.106;2023-04-24T07:04:29;3.70;;;3.30;;
45905;SDS011;31619;49.008;12.106;2023-04-24T07:06:55;3.50;;;3.20;;
45905;SDS011;31619;49.008;12.106;2023-04-24T07:09:23;3.42;;;3.22;;
45905;SDS011;31619;49.008;12.106;2023-04-24T07:11:50;3.75;;;3.55;;
45905;SDS011;31619;49.008;12.106;2023-04-24T07:14:16;3.35;;;3.20;;
45905;SDS011;31619;49.008;12.106;2023-04-24T07:16:42;3.38;;;3.13;;
45905;SDS011;31619;49.008;12.106;2023-04-24T07:19:08;3.05;;;2.85;;
45905;SDS011;31619;49.008;12.106;2023-04-24T07:21:34;3.15;;;2.95;;
45905;SDS011;31619;49.008;12.106;2023-04-24T07:23:59;3.08;;;2.88;;
45905;SDS011;31619;49.008;12.106;2023-04-24T07:26:26;2.95;;;2.75;;
45905;SDS011;31619;49.008;12.106;2023-04-24T07:28:53;2.65;;;2.55;;
45905;SDS011;31619;49.008;12.106;2023-04-24T07:31:19;3.25;;;2.78;;
45905;SDS011;31619;49.008;12.106;2023-04-24T07:33:44;2.90;;;2.63;;
45905;SDS011;31619;49.008;12.106;2023-04-24T07:36:10;2.95;;;2.75;;
45905;SDS011;31619;49.008;12.106;2023-04-24T07:38:40;2.70;;;2.50;;
45905;SDS011;31619;49.008;12.106;2023-04-24T07:41:12;2.38;;;2.17;;
45905;SDS011;31619;49.008;12.106;2023-04-24T07:43:39;2.03;;;2.03;;
45905;SDS011;31619;49.008;12.106;2023-04-24T07:46:05;1.65;;;1.60;;
45905;SDS011;31619;49.008;12.106;2023-04-24T07:48:31;2.20;;;1.98;;
45905;SDS011;31619;49.008;12.106;2023-04-24T07:50:56;1.83;;;1.73;;
45905;SDS011;31619;49.008;12.106;2023-04-24T07:53:22;1.95;;;1.85;;
45905;SDS011;31619;49.008;12.106;2023-04-24T07:55:48;1.63;;;1.52;;
45905;SDS011;31619;49.008;12.106;2023-04-24T07:58:13;1.42;;;1.33;;
45905;SDS011;31619;49.008;12.106;2023-04-24T08:00:40;3.60;;;1.75;;
45905;SDS011;31619;49.008;12.106;2023-04-24T08:03:05;1.63;;;1.52;;
45905;SDS011;31619;49.008;12.106;2023-04-24T08:05:31;1.67;;;1.65;;
45905;SDS011;31619;49.008;12.106;2023-04-24T08:07:56;1.30;;;1.30;;
45905;SDS011;31619;49.008;12.106;2023-04-24T08:10:23;1.10;;;1.10;;
45905;SDS011;31619;49.008;12.106;2023-04-24T08:12:50;1.83;;;1.40;;
45905;SDS011;31619;49.008;12.106;2023-04-24T08:15:15;1.75;;;1.65;;
45905;SDS011;31619;49.008;12.106;2023-04-24T08:17:41;2.45;;;1.13;;
45905;SDS011;31619;49.008;12.106;2023-04-24T08:20:07;1.08;;;1.08;;
45905;SDS011;31619;49.008;12.106;2023-04-24T08:22:38;1.05;;;0.90;;
45905;SDS011;31619;49.008;12.106;2023-04-24T08:25:05;1.30;;;1.20;;
45905;SDS011;31619;49.008;12.106;2023-04-24T08:27:31;1.10;;;1.00;;
45905;SDS011;31619;49.008;12.106;2023-04-24T08:29:57;1.77;;;1.20;;
45905;SDS011;31619;49.008;12.106;2023-04-24T08:32:23;0.98;;;0.98;;
45905;SDS011;31619;49.008;12.106;2023-04-24T08:34:49;1.88;;;0.98;;
45905;SDS011;31619;49.008;12.106;2023-04-24T08:37:17;2.97;;;1.08;;
45905;SDS011;31619;49.008;12.106;2023-04-24T08:39:43;1.45;;;1.35;;
45905;SDS011;31619;49.008;12.106;2023-04-24T08:42:08;2.80;;;1.55;;
45905;SDS011;31619;49.008;12.106;2023-04-24T08:44:36;2.80;;;1.58;;
45905;SDS011;31619;49.008;12.106;2023-04-24T08:47:02;1.30;;;1.30;;
45905;SDS011;31619;49.008;12.106;2023-04-24T08:49:28;2.03;;;1.58;;
45905;SDS011;31619;49.008;12.106;2023-04-24T08:51:54;1.52;;;1.50;;
45905;SDS011;31619;49.008;12.106;2023-04-24T08:54:20;1.60;;;1.60;;
45905;SDS011;31619;49.008;12.106;2023-04-24T08:56:47;1.73;;;1.63;;
45905;SDS011;31619;49.008;12.106;2023-04-24T08:59:14;3.00;;;1.70;;
45905;SDS011;31619;49.008;12.106;2023-04-24T09:01:40;1.92;;;1.70;;
45905;SDS011;31619;49.008;12.106;2023-04-24T09:04:07;1.92;;;1.63;;
45905;SDS011;31619;49.008;12.106;2023-04-24T09:06:37;2.03;;;1.60;;
45905;SDS011;31619;49.008;12.106;2023-04-24T09:09:03;2.03;;;1.92;;
45905;SDS011;31619;49.008;12.106;2023-04-24T09:11:30;4.50;;;2.00;;
45905;SDS011;31619;49.008;12.106;2023-04-24T09:13:57;2.53;;;1.85;;
45905;SDS011;31619;49.008;12.106;2023-04-24T09:16:24;1.70;;;1.60;;
45905;SDS011;31619;49.008;12.106;2023-04-24T09:18:51;1.42;;;1.40;;
45905;SDS011;31619;49.008;12.106;2023-04-24T09:21:17;1.80;;;1.70;;
45905;SDS011;31619;49.008;12.106;2023-04-24T09:23:45;1.30;;;1.30;;
45905;SDS011;31619;49.008;12.106;2023-04-24T09:26:10;2.63;;;1.60;;
45905;SDS011;31619;49.008;12.106;2023-04-24T09:28:37;1.80;;;1.13;;
45905;SDS011;31619;49.008;12.106;2023-04-24T09:33:30;1.38;;;1.13;;
45905;SDS011;31619;49.008;12.106;2023-04-24T09:35:56;1.48;;;1.38;;
45905;SDS011;31619;49.008;12.106;2023-04-24T09:38:32;1.10;;;1.10;;
45905;SDS011;31619;49.008;12.106;2023-04-24T09:41:02;1.02;;;1.02;;
45905;SDS011;31619;49.008;12.106;2023-04-24T09:43:31;1.02;;;1.02;;
45905;SDS011;31619;49.008;12.106;2023-04-24T09:45:57;1.33;;;1.33;;
45905;SDS011;31619;49.008;12.106;2023-04-24T09:48:30;1.15;;;1.05;;
45905;SDS011;31619;49.008;12.106;2023-04-24T09:51:01;2.70;;;1.35;;
45905;SDS011;31619;49.008;12.106;2023-04-24T09:53:31;0.70;;;0.70;;
45905;SDS011;31619;49.008;12.106;2023-04-24T09:56:17;1.05;;;1.05;;
45905;SDS011;31619;49.008;12.106;2023-04-24T09:58:43;1.75;;;1.05;;
45905;SDS011;31619;49.008;12.106;2023-04-24T10:01:11;1.88;;;0.77;;
45905;SDS011;31619;49.008;12.106;2023-04-24T10:03:37;1.42;;;1.20;;
45905;SDS011;31619;49.008;12.106;2023-04-24T10:06:06;0.90;;;0.90;;
45905;SDS011;31619;49.008;12.106;2023-04-24T10:08:36;0.75;;;0.75;;
45905;SDS011;31619;49.008;12.106;2023-04-24T10:11:02;1.85;;;1.45;;
45905;SDS011;31619;49.008;12.106;2023-04-24T10:13:28;1.80;;;0.98;;
45905;SDS011;31619;49.008;12.106;2023-04-24T10:15:54;1.75;;;1.10;;
45905;SDS011;31619;49.008;12.106;2023-04-24T10:18:21;1.75;;;1.00;;
45905;SDS011;31619;49.008;12.106;2023-04-24T10:20:47;0.95;;;0.95;;
45905;SDS011;31619;49.008;12.106;2023-04-24T10:23:12;2.05;;;1.05;;
45905;SDS011;31619;49.008;12.106;2023-04-24T10:25:38;0.93;;;0.77;;
45905;SDS011;31619;49.008;12.106;2023-04-24T10:28:04;1.17;;;1.10;;
45905;SDS011;31619;49.008;12.106;2023-04-24T10:30:31;0.93;;;0.93;;
45905;SDS011;31619;49.008;12.106;2023-04-24T10:33:02;1.20;;;1.10;;
45905;SDS011;31619;49.008;12.106;2023-04-24T10:35:33;0.93;;;0.93;;
45905;SDS011;31619;49.008;12.106;2023-04-24T10:38:03;1.80;;;1.08;;
45905;SDS011;31619;49.008;12.106;2023-04-24T10:40:35;1.77;;;0.90;;
45905;SDS011;31619;49.008;12.106;2023-04-24T10:43:05;1.15;;;1.10;;
45905;SDS011;31619;49.008;12.106;2023-04-24T10:45:34;2.28;;;1.10;;
45905;SDS011;31619;49.008;12.106;2023-04-24T10:48:04;1.95;;;1.10;;
45905;SDS011;31619;49.008;12.106;2023-04-24T10:50:45;1.02;;;0.95;;
45905;SDS011;31619;49.008;12.106;2023-04-24T10:53:16;2.50;;;1.13;;
45905;SDS011;31619;49.008;12.106;2023-04-24T10:58:16;1.20;;;1.20;;
45905;SDS011;31619;49.008;12.106;2023-04-24T11:00:54;0.80;;;0.80;;
45905;SDS011;31619;49.008;12.106;2023-04-24T11:03:27;0.93;;;0.93;;
45905;SDS011;31619;49.008;12.106;2023-04-24T11:05:56;1.25;;;1.10;;
45905;SDS011;31619;49.008;12.106;2023-04-24T11:08:28;1.00;;;0.95;;
45905;SDS011;31619;49.008;12.106;2023-04-24T11:19:36;1.20;;;1.00;;
45905;SDS011;31619;49.008;12.106;2023-04-24T11:32:17;1.25;;;1.10;;
45905;SDS011;31619;49.008;12.106;2023-04-24T11:35:17;1.10;;;1.10;;
45905;SDS011;31619;49.008;12.106;2023-04-24T11:37:46;1.02;;;1.02;;
45905;SDS011;31619;49.008;12.106;2023-04-24T11:40:14;2.03;;;1.38;;
45905;SDS011;31619;49.008;12.106;2023-04-24T11:42:44;1.15;;;1.15;;
45905;SDS011;31619;49.008;12.106;2023-04-24T11:45:12;1.13;;;1.13;;
45905;SDS011;31619;49.008;12.106;2023-04-24T11:47:39;1.35;;;1.25;;
45905;SDS011;31619;49.008;12.106;2023-04-24T11:50:07;0.73;;;0.73;;
45905;SDS011;31619;49.008;12.106;2023-04-24T11:53:00;1.00;;;1.00;;
45905;SDS011;31619;49.008;12.106;2023-04-24T11:55:26;1.65;;;1.13;;
45905;SDS011;31619;49.008;12.106;2023-04-24T11:57:59;0.90;;;0.90;;
45905;SDS011;31619;49.008;12.106;2023-04-24T12:00:29;1.08;;;1.08;;
45905;SDS011;31619;49.008;12.106;2023-04-24T12:05:34;1.20;;;1.10;;
45905;SDS011;31619;49.008;12.106;2023-04-24T12:08:00;1.27;;;1.17;;
45905;SDS011;31619;49.008;12.106;2023-04-24T12:10:27;2.55;;;1.10;;
45905;SDS011;31619;49.008;12.106;2023-04-24T12:12:55;1.02;;;1.02;;
45905;SDS011;31619;49.008;12.106;2023-04-24T12:15:22;1.42;;;1.13;;
45905;SDS011;31619;49.008;12.106;2023-04-24T12:17:50;1.95;;;1.13;;
45905;SDS011;31619;49.008;12.106;2023-04-24T12:20:17;1.20;;;1.08;;
45905;SDS011;31619;49.008;12.106;2023-04-24T12:22:49;1.13;;;1.13;;
45905;SDS011;31619;49.008;12.106;2023-04-24T12:25:18;1.95;;;0.90;;
45905;SDS011;31619;49.008;12.106;2023-04-24T12:27:45;1.27;;;1.20;;
45905;SDS011;31619;49.008;12.106;2023-04-24T12:30:12;1.17;;;1.13;;
45905;SDS011;31619;49.008;12.106;2023-04-24T12:32:46;1.05;;;1.05;;
45905;SDS011;31619;49.008;12.106;2023-04-24T12:35:12;1.30;;;1.30;;
45905;SDS011;31619;49.008;12.106;2023-04-24T12:37:41;1.30;;;1.20;;
45905;SDS011;31619;49.008;12.106;2023-04-24T12:40:11;0.73;;;0.73;;
45905;SDS011;31619;49.008;12.106;2023-04-24T12:42:44;0.98;;;0.98;;
45905;SDS011;31619;49.008;12.106;2023-04-24T12:45:11;2.00;;;0.75;;
45905;SDS011;31619;49.008;12.106;2023-04-24T12:47:37;1.83;;;1.35;;
45905;SDS011;31619;49.008;12.106;2023-04-24T12:50:03;3.42;;;1.48;;
45905;SDS011;31619;49.008;12.106;2023-04-24T12:52:30;1.00;;;1.00;;
45905;SDS011;31619;49.008;12.106;2023-04-24T12:54:57;2.45;;;0.98;;
45905;SDS011;31619;49.008;12.106;2023-04-24T12:57:24;1.45;;;1.13;;
45905;SDS011;31619;49.008;12.106;2023-04-24T12:59:53;0.95;;;0.82;;
45905;SDS011;31619;49.008;12.106;2023-04-24T13:02:20;0.95;;;0.82;;
45905;SDS011;31619;49.008;12.106;2023-04-24T13:04:47;1.23;;;0.80;;
45905;SDS011;31619;49.008;12.106;2023-04-24T13:07:13;1.02;;;1.00;;
45905;SDS011;31619;49.008;12.106;2023-04-24T13:09:39;2.03;;;1.20;;
45905;SDS011;31619;49.008;12.106;2023-04-24T13:12:06;1.90;;;0.80;;
45905;SDS011;31619;49.008;12.106;2023-04-24T13:14:33;0.90;;;0.90;;
45905;SDS011;31619;49.008;12.106;2023-04-24T13:16:58;0.80;;;0.80;;
45905;SDS011;31619;49.008;12.106;2023-04-24T13:19:25;0.65;;;0.50;;
45905;SDS011;31619;49.008;12.106;2023-04-24T13:21:51;0.60;;;0.60;;
45905;SDS011;31619;49.008;12.106;2023-04-24T13:24:17;0.60;;;0.60;;
45905;SDS011;31619;49.008;12.106;2023-04-24T13:26:43;0.68;;;0.68;;
45905;SDS011;31619;49.008;12.106;2023-04-24T13:29:08;0.90;;;0.90;;
45905;SDS011;31619;49.008;12.106;2023-04-24T13:31:35;0.70;;;0.70;;
45905;SDS011;31619;49.008;12.106;2023-04-24T13:34:01;0.88;;;0.88;;
45905;SDS011;31619;49.008;12.106;2023-04-24T13:36:27;0.75;;;0.75;;
45905;SDS011;31619;49.008;12.106;2023-04-24T13:38:54;1.13;;;1.13;;
45905;SDS011;31619;49.008;12.106;2023-04-24T13:41:19;1.65;;;1.00;;
45905;SDS011;31619;49.008;12.106;2023-04-24T13:43:45;1.23;;;0.95;;
45905;SDS011;31619;49.008;12.106;2023-04-24T13:46:10;0.98;;;0.98;;
45905;SDS011;31619;49.008;12.106;2023-04-24T13:48:36;1.27;;;0.95;;
45905;SDS011;31619;49.008;12.106;2023-04-24T13:51:01;0.43;;;0.43;;
45905;SDS011;31619;49.008;12.106;2023-04-24T13:53:27;0.82;;;0.82;;
45905;SDS011;31619;49.008;12.106;2023-04-24T13:55:53;0.75;;;0.75;;
45905;SDS011;31619;49.008;12.106;2023-04-24T13:58:18;1.30;;;0.70;;
45905;SDS011;31619;49.008;12.106;2023-04-24T14:00:44;0.73;;;0.73;;
45905;SDS011;31619;49.008;12.106;2023-04-24T14:03:10;1.00;;;1.00;;
45905;SDS011;31619;49.008;12.106;2023-04-24T14:05:36;0.95;;;0.93;;
45905;SDS011;31619;49.008;12.106;2023-04-24T14:08:01;1.02;;;0.95;;
45905;SDS011;31619;49.008;12.106;2023-04-24T14:10:27;2.05;;;1.05;;
45905;SDS011;31619;49.008;12.106;2023-04-24T14:12:53;3.15;;;1.17;;
45905;SDS011;31619;49.008;12.106;2023-04-24T14:15:19;2.67;;;0.82;;
45905;SDS011;31619;49.008;12.106;2023-04-24T14:17:44;1.15;;;1.00;;
45905;SDS011;31619;49.008;12.106;2023-04-24T14:20:12;2.00;;;1.05;;
45905;SDS011;31619;49.008;12.106;2023-04-24T14:22:38;2.00;;;1.05;;
45905;SDS011;31619;49.008;12.106;2023-04-24T14:25:04;0.85;;;0.85;;
45905;SDS011;31619;49.008;12.106;2023-04-24T14:27:32;1.48;;;1.10;;
45905;SDS011;31619;49.008;12.106;2023-04-24T14:29:59;0.80;;;0.73;;
45905;SDS011;31619;49.008;12.106;2023-04-24T14:32:25;3.38;;;1.02;;
45905;SDS011;31619;49.008;12.106;2023-04-24T14:34:50;1.05;;;0.88;;
45905;SDS011;31619;49.008;12.106;2023-04-24T14:37:16;1.13;;;0.82;;
45905;SDS011;31619;49.008;12.106;2023-04-24T14:39:42;1.33;;;1.23;;
45905;SDS011;31619;49.008;12.106;2023-04-24T14:42:07;0.98;;;0.98;;
45905;SDS011;31619;49.008;12.106;2023-04-24T14:44:33;0.90;;;0.90;;
45905;SDS011;31619;49.008;12.106;2023-04-24T14:46:58;0.93;;;0.93;;
45905;SDS011;31619;49.008;12.106;2023-04-24T14:49:25;0.90;;;0.90;;
45905;SDS011;31619;49.008;12.106;2023-04-24T14:51:51;1.00;;;1.00;;
45905;SDS011;31619;49.008;12.106;2023-04-24T14:54:16;1.05;;;1.05;;